sensor_id;sensor_type;location;lat;lon;timestamp;pressure;altitude;pressure_sealevel;temperature;humidity
64298;BME280;50639;53.270;7.956;2024-03-07T00:01:30;102814.38;;;5.20;85.31
64298;BME280;50639;53.270;7.956;2024-03-07T00:03:57;102812.72;;;5.18;86.17
64298;BME280;50639;53.270;7.956;2024-03-07T00:06:22;102822.94;;;5.21;85.56
64298;BME280;50639;53.270;7.956;2024-03-07T00:08:47;102812.69;;;5.19;85.08
64298;BME280;50639;53.270;7.956;2024-03-07T00:11:13;102819.53;;;5.20;85.51
64298;BME280;50639;53.270;7.956;2024-03-07T00:13:39;102812.66;;;5.21;85.01
64298;BME280;50639;53.270;7.956;2024-03-07T00:16:05;102815.28;;;5.18;85.10
64298;BME280;50639;53.270;7.956;2024-03-07T00:18:30;102824.69;;;5.17;85.38
64298;BME280;50639;53.270;7.956;2024-03-07T00:20:56;102813.63;;;5.05;84.89
64298;BME280;50639;53.270;7.956;2024-03-07T00:23:21;102815.38;;;5.01;85.00
64298;BME280;50639;53.270;7.956;2024-03-07T00:25:47;102823.94;;;4.99;84.78
64298;BME280;50639;53.270;7.956;2024-03-07T00:28:16;102820.47;;;5.03;84.79
64298;BME280;50639;53.270;7.956;2024-03-07T00:30:43;102823.06;;;5.01;85.44
64298;BME280;50639;53.270;7.956;2024-03-07T00:33:11;102822.22;;;4.98;85.09
64298;BME280;50639;53.270;7.956;2024-03-07T00:35:37;102814.53;;;4.98;85.92
64298;BME280;50639;53.270;7.956;2024-03-07T00:38:02;102815.38;;;5.01;86.40
64298;BME280;50639;53.270;7.956;2024-03-07T00:40:29;102818.81;;;4.99;85.52
64298;BME280;50639;53.270;7.956;2024-03-07T00:42:55;102817.09;;;4.93;85.52
64298;BME280;50639;53.270;7.956;2024-03-07T00:45:20;102816.25;;;4.96;86.05
64298;BME280;50639;53.270;7.956;2024-03-07T00:47:46;102818.81;;;4.94;85.88
64298;BME280;50639;53.270;7.956;2024-03-07T00:50:11;102809.44;;;4.91;86.46
64298;BME280;50639;53.270;7.956;2024-03-07T00:52:38;102806.88;;;4.90;86.31
64298;BME280;50639;53.270;7.956;2024-03-07T00:55:04;102818.81;;;4.94;85.92
64298;BME280;50639;53.270;7.956;2024-03-07T00:57:30;102811.97;;;4.95;85.13
64298;BME280;50639;53.270;7.956;2024-03-07T00:59:55;102805.97;;;4.92;85.93
64298;BME280;50639;53.270;7.956;2024-03-07T01:02:21;102810.28;;;4.90;85.22
64298;BME280;50639;53.270;7.956;2024-03-07T01:04:47;102805.16;;;4.92;86.11
64298;BME280;50639;53.270;7.956;2024-03-07T01:07:13;102808.59;;;4.88;86.12
64298;BME280;50639;53.270;7.956;2024-03-07T01:09:39;102813.72;;;4.86;86.51
64298;BME280;50639;53.270;7.956;2024-03-07T01:12:04;102806.88;;;4.84;86.04
64298;BME280;50639;53.270;7.956;2024-03-07T01:14:31;102806.91;;;4.82;86.35
64298;BME280;50639;53.270;7.956;2024-03-07T01:16:56;102800.06;;;4.77;87.13
64298;BME280;50639;53.270;7.956;2024-03-07T01:19:22;102806.94;;;4.73;87.36
64298;BME280;50639;53.270;7.956;2024-03-07T01:21:48;102800.97;;;4.70;86.95
64298;BME280;50639;53.270;7.956;2024-03-07T01:24:13;102799.28;;;4.63;87.75
64298;BME280;50639;53.270;7.956;2024-03-07T01:26:43;102801.88;;;4.50;87.13
64298;BME280;50639;53.270;7.956;2024-03-07T01:29:09;102802.78;;;4.45;87.39
64298;BME280;50639;53.270;7.956;2024-03-07T01:31:34;102799.34;;;4.40;87.90
64298;BME280;50639;53.270;7.956;2024-03-07T01:34:00;102791.69;;;4.34;88.37
64298;BME280;50639;53.270;7.956;2024-03-07T01:36:25;102800.25;;;4.28;88.13
64298;BME280;50639;53.270;7.956;2024-03-07T01:38:50;102800.25;;;4.25;87.99
64298;BME280;50639;53.270;7.956;2024-03-07T01:41:16;102792.56;;;4.24;88.59
64298;BME280;50639;53.270;7.956;2024-03-07T01:43:42;102790.00;;;4.18;88.74
64298;BME280;50639;53.270;7.956;2024-03-07T01:46:09;102796.84;;;4.15;89.34
64298;BME280;50639;53.270;7.956;2024-03-07T01:48:35;102801.16;;;4.12;88.64
64298;BME280;50639;53.270;7.956;2024-03-07T01:51:01;102789.16;;;4.06;89.00
64298;BME280;50639;53.270;7.956;2024-03-07T01:53:30;102788.31;;;4.07;89.36
64298;BME280;50639;53.270;7.956;2024-03-07T01:55:56;102791.72;;;4.05;89.55
64298;BME280;50639;53.270;7.956;2024-03-07T01:58:23;102784.91;;;4.10;89.69
64298;BME280;50639;53.270;7.956;2024-03-07T02:00:49;102776.38;;;4.12;89.86
64298;BME280;50639;53.270;7.956;2024-03-07T02:03:14;102781.47;;;4.17;89.41
64298;BME280;50639;53.270;7.956;2024-03-07T02:05:41;102780.59;;;4.16;89.20
64298;BME280;50639;53.270;7.956;2024-03-07T02:08:06;102782.31;;;4.14;89.67
64298;BME280;50639;53.270;7.956;2024-03-07T02:10:32;102779.78;;;4.10;89.51
64298;BME280;50639;53.270;7.956;2024-03-07T02:12:57;102766.94;;;4.05;89.69
64298;BME280;50639;53.270;7.956;2024-03-07T02:15:23;102775.50;;;3.97;89.11
64298;BME280;50639;53.270;7.956;2024-03-07T02:17:48;102770.44;;;3.86;90.11
64298;BME280;50639;53.270;7.956;2024-03-07T02:20:14;102776.38;;;3.79;90.10
64298;BME280;50639;53.270;7.956;2024-03-07T02:22:41;102767.00;;;3.72;90.49
64298;BME280;50639;53.270;7.956;2024-03-07T02:25:07;102763.59;;;3.64;90.98
64298;BME280;50639;53.270;7.956;2024-03-07T02:27:35;102769.59;;;3.58;91.20
64298;BME280;50639;53.270;7.956;2024-03-07T02:30:01;102768.72;;;3.47;90.73
64298;BME280;50639;53.270;7.956;2024-03-07T02:32:29;102765.31;;;3.42;91.04
64298;BME280;50639;53.270;7.956;2024-03-07T02:34:54;102767.88;;;3.33;90.82
64298;BME280;50639;53.270;7.956;2024-03-07T02:37:19;102768.69;;;3.15;91.14
64298;BME280;50639;53.270;7.956;2024-03-07T02:39:45;102771.22;;;2.98;91.55
64298;BME280;50639;53.270;7.956;2024-03-07T02:42:11;102768.63;;;2.88;91.91
64298;BME280;50639;53.270;7.956;2024-03-07T02:44:36;102766.06;;;2.80;92.63
64298;BME280;50639;53.270;7.956;2024-03-07T02:47:06;102773.72;;;2.73;92.15
64298;BME280;50639;53.270;7.956;2024-03-07T02:49:32;102771.13;;;2.67;92.65
64298;BME280;50639;53.270;7.956;2024-03-07T02:51:58;102767.72;;;2.63;93.42
64298;BME280;50639;53.270;7.956;2024-03-07T02:54:23;102777.03;;;2.53;93.29
64298;BME280;50639;53.270;7.956;2024-03-07T02:56:49;102775.28;;;2.48;93.70
64298;BME280;50639;53.270;7.956;2024-03-07T02:59:14;102775.28;;;2.43;93.91
64298;BME280;50639;53.270;7.956;2024-03-07T03:01:40;102772.69;;;2.39;94.03
64298;BME280;50639;53.270;7.956;2024-03-07T03:04:06;102771.84;;;2.38;94.26
64298;BME280;50639;53.270;7.956;2024-03-07T03:06:31;102771.84;;;2.40;94.29
64298;BME280;50639;53.270;7.956;2024-03-07T03:08:57;102768.44;;;2.38;94.14
64298;BME280;50639;53.270;7.956;2024-03-07T03:11:24;102771.00;;;2.41;95.03
64298;BME280;50639;53.270;7.956;2024-03-07T03:13:51;102778.72;;;2.45;94.65
64298;BME280;50639;53.270;7.956;2024-03-07T03:16:17;102778.72;;;2.48;95.28
64298;BME280;50639;53.270;7.956;2024-03-07T03:18:42;102766.81;;;2.53;95.34
64298;BME280;50639;53.270;7.956;2024-03-07T03:21:08;102768.56;;;2.62;94.95
64298;BME280;50639;53.270;7.956;2024-03-07T03:23:34;102771.13;;;2.67;95.62
64298;BME280;50639;53.270;7.956;2024-03-07T03:26:00;102774.59;;;2.79;95.37
64298;BME280;50639;53.270;7.956;2024-03-07T03:28:25;102781.44;;;2.89;95.33
64298;BME280;50639;53.270;7.956;2024-03-07T03:30:51;102778.03;;;2.92;94.98
64298;BME280;50639;53.270;7.956;2024-03-07T03:33:17;102776.28;;;2.80;95.15
64298;BME280;50639;53.270;7.956;2024-03-07T03:35:43;102777.16;;;2.84;95.23
64298;BME280;50639;53.270;7.956;2024-03-07T03:38:09;102770.34;;;2.86;94.99
64298;BME280;50639;53.270;7.956;2024-03-07T03:40:34;102777.97;;;2.72;95.02
64298;BME280;50639;53.270;7.956;2024-03-07T03:43:00;102769.38;;;2.59;95.48
64298;BME280;50639;53.270;7.956;2024-03-07T03:45:26;102775.34;;;2.52;96.00
64298;BME280;50639;53.270;7.956;2024-03-07T03:47:52;102766.75;;;2.41;96.60
64298;BME280;50639;53.270;7.956;2024-03-07T03:50:18;102764.22;;;2.44;96.69
64298;BME280;50639;53.270;7.956;2024-03-07T03:52:44;102772.75;;;2.48;96.67
64298;BME280;50639;53.270;7.956;2024-03-07T03:55:09;102772.75;;;2.51;96.72
64298;BME280;50639;53.270;7.956;2024-03-07T03:57:35;102771.06;;;2.56;96.86
64298;BME280;50639;53.270;7.956;2024-03-07T04:00:02;102771.09;;;2.54;97.01
64298;BME280;50639;53.270;7.956;2024-03-07T04:02:35;102766.84;;;2.59;97.23
64298;BME280;50639;53.270;7.956;2024-03-07T04:05:02;102773.66;;;2.62;96.85
64298;BME280;50639;53.270;7.956;2024-03-07T04:07:29;102767.69;;;2.60;97.32
64298;BME280;50639;53.270;7.956;2024-03-07T04:09:57;102771.13;;;2.62;96.51
64298;BME280;50639;53.270;7.956;2024-03-07T04:12:26;102766.84;;;2.62;97.50
64298;BME280;50639;53.270;7.956;2024-03-07T04:14:53;102766.84;;;2.62;97.85
64298;BME280;50639;53.270;7.956;2024-03-07T04:17:20;102762.59;;;2.69;97.59
64298;BME280;50639;53.270;7.956;2024-03-07T04:19:46;102767.72;;;2.74;97.52
64298;BME280;50639;53.270;7.956;2024-03-07T04:22:11;102775.41;;;2.77;97.94
64298;BME280;50639;53.270;7.956;2024-03-07T04:24:37;102776.31;;;2.86;98.10
64298;BME280;50639;53.270;7.956;2024-03-07T04:27:04;102770.34;;;2.89;97.56
64298;BME280;50639;53.270;7.956;2024-03-07T04:29:34;102772.03;;;2.85;97.75
64298;BME280;50639;53.270;7.956;2024-03-07T04:32:00;102774.56;;;2.78;97.53
64298;BME280;50639;53.270;7.956;2024-03-07T04:34:27;102764.34;;;2.76;98.23
64298;BME280;50639;53.270;7.956;2024-03-07T04:37:00;102770.34;;;2.81;97.38
64298;BME280;50639;53.270;7.956;2024-03-07T04:39:29;102772.03;;;2.79;98.04
64298;BME280;50639;53.270;7.956;2024-03-07T04:42:07;102771.16;;;2.83;97.96
64298;BME280;50639;53.270;7.956;2024-03-07T04:44:35;102772.06;;;2.88;98.31
64298;BME280;50639;53.270;7.956;2024-03-07T04:47:01;102769.47;;;2.79;98.17
64298;BME280;50639;53.270;7.956;2024-03-07T04:49:29;102764.34;;;2.81;97.66
64298;BME280;50639;53.270;7.956;2024-03-07T04:51:55;102772.03;;;2.84;98.39
64298;BME280;50639;53.270;7.956;2024-03-07T04:54:22;102772.88;;;2.84;97.99
64298;BME280;50639;53.270;7.956;2024-03-07T04:56:49;102766.03;;;2.82;97.58
64298;BME280;50639;53.270;7.956;2024-03-07T04:59:15;102775.44;;;2.81;97.96
64298;BME280;50639;53.270;7.956;2024-03-07T05:01:42;102772.00;;;2.82;98.18
64298;BME280;50639;53.270;7.956;2024-03-07T05:04:07;102767.75;;;2.84;98.09
64298;BME280;50639;53.270;7.956;2024-03-07T05:06:34;102770.34;;;2.86;97.90
64298;BME280;50639;53.270;7.956;2024-03-07T05:09:00;102758.41;;;2.86;98.58
64298;BME280;50639;53.270;7.956;2024-03-07T05:11:28;102755.88;;;2.97;98.26
64298;BME280;50639;53.270;7.956;2024-03-07T05:13:53;102759.25;;;2.93;97.93
64298;BME280;50639;53.270;7.956;2024-03-07T05:16:19;102761.00;;;2.98;98.44
64298;BME280;50639;53.270;7.956;2024-03-07T05:18:45;102754.16;;;2.99;98.01
64298;BME280;50639;53.270;7.956;2024-03-07T05:21:10;102753.31;;;3.05;98.28
64298;BME280;50639;53.270;7.956;2024-03-07T05:23:55;102751.63;;;2.99;97.97
64298;BME280;50639;53.270;7.956;2024-03-07T05:26:20;102753.31;;;3.03;98.31
64298;BME280;50639;53.270;7.956;2024-03-07T05:28:46;102749.06;;;3.03;97.93
64298;BME280;50639;53.270;7.956;2024-03-07T05:31:11;102755.00;;;3.01;98.38
64298;BME280;50639;53.270;7.956;2024-03-07T05:33:38;102761.84;;;3.05;98.69
64298;BME280;50639;53.270;7.956;2024-03-07T05:36:06;102755.88;;;3.06;98.06
64298;BME280;50639;53.270;7.956;2024-03-07T05:38:41;102760.16;;;3.10;98.52
64298;BME280;50639;53.270;7.956;2024-03-07T05:41:12;102768.69;;;3.14;98.46
64298;BME280;50639;53.270;7.956;2024-03-07T05:43:38;102761.88;;;3.20;98.80
64298;BME280;50639;53.270;7.956;2024-03-07T05:46:03;102763.56;;;3.26;98.51
64298;BME280;50639;53.270;7.956;2024-03-07T05:48:30;102759.31;;;3.29;98.80
64298;BME280;50639;53.270;7.956;2024-03-07T05:50:56;102763.59;;;3.32;98.84
64298;BME280;50639;53.270;7.956;2024-03-07T05:53:22;102766.13;;;3.27;98.20
64298;BME280;50639;53.270;7.956;2024-03-07T05:55:47;102777.25;;;3.29;98.40
64298;BME280;50639;53.270;7.956;2024-03-07T05:58:13;102773.84;;;3.30;98.32
64298;BME280;50639;53.270;7.956;2024-03-07T06:00:38;102772.13;;;3.29;97.97
64298;BME280;50639;53.270;7.956;2024-03-07T06:03:05;102770.41;;;3.34;98.28
64298;BME280;50639;53.270;7.956;2024-03-07T06:05:30;102772.13;;;3.23;98.66
64298;BME280;50639;53.270;7.956;2024-03-07T06:07:56;102770.44;;;3.33;98.27
64298;BME280;50639;53.270;7.956;2024-03-07T06:10:22;102765.31;;;3.40;98.24
64298;BME280;50639;53.270;7.956;2024-03-07T06:12:52;102776.41;;;3.41;98.14
64298;BME280;50639;53.270;7.956;2024-03-07T06:15:17;102779.81;;;3.43;98.12
64298;BME280;50639;53.270;7.956;2024-03-07T06:17:43;102776.41;;;3.43;97.62
64298;BME280;50639;53.270;7.956;2024-03-07T06:20:12;102783.22;;;3.37;98.17
64298;BME280;50639;53.270;7.956;2024-03-07T06:22:48;102777.25;;;3.48;98.26
64298;BME280;50639;53.270;7.956;2024-03-07T06:25:16;102784.09;;;3.43;97.02
64298;BME280;50639;53.270;7.956;2024-03-07T06:27:46;102776.41;;;3.36;97.32
64298;BME280;50639;53.270;7.956;2024-03-07T06:30:15;102778.94;;;3.35;97.78
64298;BME280;50639;53.270;7.956;2024-03-07T06:32:44;102781.53;;;3.41;97.66
64298;BME280;50639;53.270;7.956;2024-03-07T06:35:09;102796.03;;;3.37;97.60
64298;BME280;50639;53.270;7.956;2024-03-07T06:37:35;102791.78;;;3.49;97.90
64298;BME280;50639;53.270;7.956;2024-03-07T06:40:01;102793.50;;;3.51;98.42
64298;BME280;50639;53.270;7.956;2024-03-07T06:42:31;102786.66;;;3.58;97.75
64298;BME280;50639;53.270;7.956;2024-03-07T06:44:58;102788.34;;;3.62;98.14
64298;BME280;50639;53.270;7.956;2024-03-07T06:47:23;102785.81;;;3.68;98.20
64298;BME280;50639;53.270;7.956;2024-03-07T06:49:49;102782.38;;;3.73;97.88
64298;BME280;50639;53.270;7.956;2024-03-07T06:52:17;102790.06;;;3.73;97.70
64298;BME280;50639;53.270;7.956;2024-03-07T06:54:43;102789.22;;;3.77;97.54
64298;BME280;50639;53.270;7.956;2024-03-07T06:57:09;102783.22;;;3.83;97.22
64298;BME280;50639;53.270;7.956;2024-03-07T06:59:34;102784.09;;;3.81;97.38
64298;BME280;50639;53.270;7.956;2024-03-07T07:02:02;102795.19;;;3.81;97.73
64298;BME280;50639;53.270;7.956;2024-03-07T07:04:29;102791.78;;;3.84;97.21
64298;BME280;50639;53.270;7.956;2024-03-07T07:07:07;102788.34;;;3.78;97.14
64298;BME280;50639;53.270;7.956;2024-03-07T07:09:35;102785.81;;;3.77;96.94
64298;BME280;50639;53.270;7.956;2024-03-07T07:12:02;102789.22;;;3.71;97.04
64298;BME280;50639;53.270;7.956;2024-03-07T07:14:27;102790.09;;;3.76;97.55
64298;BME280;50639;53.270;7.956;2024-03-07T07:16:53;102796.03;;;3.80;97.91
64298;BME280;50639;53.270;7.956;2024-03-07T07:19:19;102796.06;;;3.85;97.60
64298;BME280;50639;53.270;7.956;2024-03-07T07:21:44;102798.59;;;3.89;97.06
64298;BME280;50639;53.270;7.956;2024-03-07T07:24:10;102808.00;;;3.95;97.66
64298;BME280;50639;53.270;7.956;2024-03-07T07:26:36;102802.88;;;3.90;96.81
64298;BME280;50639;53.270;7.956;2024-03-07T07:29:01;102800.31;;;3.95;97.15
64298;BME280;50639;53.270;7.956;2024-03-07T07:31:29;102804.56;;;3.99;97.79
64298;BME280;50639;53.270;7.956;2024-03-07T07:33:55;102797.72;;;4.05;97.02
64298;BME280;50639;53.270;7.956;2024-03-07T07:36:20;102799.44;;;4.09;97.65
64298;BME280;50639;53.270;7.956;2024-03-07T07:38:46;102796.88;;;4.09;96.87
64298;BME280;50639;53.270;7.956;2024-03-07T07:41:12;102795.16;;;4.07;96.50
64298;BME280;50639;53.270;7.956;2024-03-07T07:43:39;102792.56;;;4.18;97.00
64298;BME280;50639;53.270;7.956;2024-03-07T07:46:05;102789.16;;;4.15;96.65
64298;BME280;50639;53.270;7.956;2024-03-07T07:48:30;102792.56;;;4.24;96.09
64298;BME280;50639;53.270;7.956;2024-03-07T07:50:55;102790.00;;;4.30;96.44
64298;BME280;50639;53.270;7.956;2024-03-07T07:53:21;102793.38;;;4.32;95.83
64298;BME280;50639;53.270;7.956;2024-03-07T07:55:46;102792.53;;;4.34;96.13
64298;BME280;50639;53.270;7.956;2024-03-07T07:58:14;102791.66;;;4.43;95.60
64298;BME280;50639;53.270;7.956;2024-03-07T08:00:39;102802.75;;;4.42;95.60
64298;BME280;50639;53.270;7.956;2024-03-07T08:03:05;102795.91;;;4.50;95.40
64298;BME280;50639;53.270;7.956;2024-03-07T08:05:36;102789.06;;;4.50;95.56
64298;BME280;50639;53.270;7.956;2024-03-07T08:08:03;102793.34;;;4.53;95.71
64298;BME280;50639;53.270;7.956;2024-03-07T08:10:31;102790.72;;;4.58;95.42
64298;BME280;50639;53.270;7.956;2024-03-07T08:12:57;102793.28;;;4.62;94.95
64298;BME280;50639;53.270;7.956;2024-03-07T08:15:25;102787.28;;;4.69;95.67
64298;BME280;50639;53.270;7.956;2024-03-07T08:17:51;102778.72;;;4.75;94.85
64298;BME280;50639;53.270;7.956;2024-03-07T08:20:19;102781.25;;;4.78;95.33
64298;BME280;50639;53.270;7.956;2024-03-07T08:22:46;102785.50;;;4.83;94.52
64298;BME280;50639;53.270;7.956;2024-03-07T08:25:13;102778.63;;;4.91;93.39
64298;BME280;50639;53.270;7.956;2024-03-07T08:27:42;102770.91;;;4.91;94.46
64298;BME280;50639;53.270;7.956;2024-03-07T08:30:08;102770.03;;;4.94;93.80
64298;BME280;50639;53.270;7.956;2024-03-07T08:32:43;102765.69;;;5.02;93.55
64298;BME280;50639;53.270;7.956;2024-03-07T08:35:09;102766.47;;;5.15;93.63
64298;BME280;50639;53.270;7.956;2024-03-07T08:37:39;102759.50;;;5.34;92.59
64298;BME280;50639;53.270;7.956;2024-03-07T08:40:06;102756.88;;;5.40;92.72
64298;BME280;50639;53.270;7.956;2024-03-07T08:42:38;102758.56;;;5.44;92.85
64298;BME280;50639;53.270;7.956;2024-03-07T08:45:05;102761.06;;;5.51;92.76
64298;BME280;50639;53.270;7.956;2024-03-07T08:47:34;102754.19;;;5.55;92.70
64298;BME280;50639;53.270;7.956;2024-03-07T08:50:00;102750.69;;;5.63;92.67
64298;BME280;50639;53.270;7.956;2024-03-07T08:52:26;102761.78;;;5.70;91.96
64298;BME280;50639;53.270;7.956;2024-03-07T08:54:53;102747.13;;;5.78;92.10
64298;BME280;50639;53.270;7.956;2024-03-07T08:57:19;102745.34;;;5.83;91.99
64298;BME280;50639;53.270;7.956;2024-03-07T08:59:45;102744.47;;;5.86;91.80
64298;BME280;50639;53.270;7.956;2024-03-07T09:02:11;102742.78;;;5.83;91.93
64298;BME280;50639;53.270;7.956;2024-03-07T09:04:37;102745.28;;;5.94;90.77
64298;BME280;50639;53.270;7.956;2024-03-07T09:07:04;102743.59;;;5.93;90.94
64298;BME280;50639;53.270;7.956;2024-03-07T09:09:30;102736.72;;;5.92;90.98
64298;BME280;50639;53.270;7.956;2024-03-07T09:11:55;102740.97;;;5.97;91.41
64298;BME280;50639;53.270;7.956;2024-03-07T09:14:21;102743.47;;;6.03;90.62
64298;BME280;50639;53.270;7.956;2024-03-07T09:16:46;102737.47;;;6.03;90.48
64298;BME280;50639;53.270;7.956;2024-03-07T09:19:14;102734.88;;;6.06;91.06
64298;BME280;50639;53.270;7.956;2024-03-07T09:21:45;102738.25;;;6.08;91.24
64298;BME280;50639;53.270;7.956;2024-03-07T09:24:11;102734.81;;;6.12;90.62
64298;BME280;50639;53.270;7.956;2024-03-07T09:26:37;102733.88;;;6.19;90.41
64298;BME280;50639;53.270;7.956;2024-03-07T09:29:03;102726.09;;;6.24;90.88
64298;BME280;50639;53.270;7.956;2024-03-07T09:31:34;102732.03;;;6.27;90.68
64298;BME280;50639;53.270;7.956;2024-03-07T09:33:59;102730.31;;;6.31;89.82
64298;BME280;50639;53.270;7.956;2024-03-07T09:36:28;102726.88;;;6.30;90.08
64298;BME280;50639;53.270;7.956;2024-03-07T09:38:55;102725.16;;;6.31;89.38
64298;BME280;50639;53.270;7.956;2024-03-07T09:41:22;102726.97;;;6.24;90.01
64298;BME280;50639;53.270;7.956;2024-03-07T09:43:54;102728.50;;;6.36;89.25
64298;BME280;50639;53.270;7.956;2024-03-07T09:46:21;102725.78;;;6.50;89.63
64298;BME280;50639;53.270;7.956;2024-03-07T09:48:49;102716.97;;;6.67;88.63
64298;BME280;50639;53.270;7.956;2024-03-07T09:51:21;102721.09;;;6.77;88.39
64298;BME280;50639;53.270;7.956;2024-03-07T09:53:48;102723.53;;;6.88;88.66
64298;BME280;50639;53.270;7.956;2024-03-07T09:56:17;102719.22;;;6.89;87.35
64298;BME280;50639;53.270;7.956;2024-03-07T09:58:48;102714.75;;;7.03;87.19
64298;BME280;50639;53.270;7.956;2024-03-07T10:01:15;102721.25;;;7.24;87.21
64298;BME280;50639;53.270;7.956;2024-03-07T10:03:43;102724.53;;;7.33;86.72
64298;BME280;50639;53.270;7.956;2024-03-07T10:06:10;102724.34;;;7.47;86.53
64298;BME280;50639;53.270;7.956;2024-03-07T10:08:36;102718.94;;;7.61;86.26
64298;BME280;50639;53.270;7.956;2024-03-07T10:11:02;102729.75;;;7.79;85.20
64298;BME280;50639;53.270;7.956;2024-03-07T10:13:27;102723.00;;;7.74;85.32
64298;BME280;50639;53.270;7.956;2024-03-07T10:15:56;102721.81;;;7.91;84.79
64298;BME280;50639;53.270;7.956;2024-03-07T10:18:25;102727.59;;;8.03;85.06
64298;BME280;50639;53.270;7.956;2024-03-07T10:20:55;102723.81;;;8.20;84.42
64298;BME280;50639;53.270;7.956;2024-03-07T10:23:21;102719.28;;;8.33;82.69
64298;BME280;50639;53.270;7.956;2024-03-07T10:25:47;102713.28;;;8.33;81.65
64298;BME280;50639;53.270;7.956;2024-03-07T10:28:13;102714.09;;;8.35;82.12
64298;BME280;50639;53.270;7.956;2024-03-07T10:30:42;102715.69;;;8.40;82.06
64298;BME280;50639;53.270;7.956;2024-03-07T10:33:10;102706.19;;;8.42;80.82
64298;BME280;50639;53.270;7.956;2024-03-07T10:35:38;102716.56;;;8.41;81.58
64298;BME280;50639;53.270;7.956;2024-03-07T10:38:04;102698.34;;;8.47;80.85
64298;BME280;50639;53.270;7.956;2024-03-07T10:40:33;102705.97;;;8.53;80.67
64298;BME280;50639;53.270;7.956;2024-03-07T10:43:01;102704.16;;;8.56;80.15
64298;BME280;50639;53.270;7.956;2024-03-07T10:45:38;102696.25;;;8.64;79.95
64298;BME280;50639;53.270;7.956;2024-03-07T10:48:11;102695.00;;;8.80;80.05
64298;BME280;50639;53.270;7.956;2024-03-07T10:58:58;102687.50;;;8.31;80.82
64298;BME280;50639;53.270;7.956;2024-03-07T11:01:30;102691.28;;;8.53;80.78
64298;BME280;50639;53.270;7.956;2024-03-07T11:03:59;102697.97;;;8.63;80.71
64298;BME280;50639;53.270;7.956;2024-03-07T11:06:25;102691.91;;;8.64;79.25
64298;BME280;50639;53.270;7.956;2024-03-07T11:08:52;102695.38;;;8.63;80.00
64298;BME280;50639;53.270;7.956;2024-03-07T11:11:17;102698.81;;;8.64;79.39
64298;BME280;50639;53.270;7.956;2024-03-07T11:13:43;102683.22;;;8.70;79.53
64298;BME280;50639;53.270;7.956;2024-03-07T11:16:10;102687.72;;;8.60;79.03
64298;BME280;50639;53.270;7.956;2024-03-07T11:18:38;102677.56;;;8.53;78.37
64298;BME280;50639;53.270;7.956;2024-03-07T11:21:05;102683.91;;;8.38;78.86
64298;BME280;50639;53.270;7.956;2024-03-07T11:23:33;102676.75;;;8.51;79.08
64298;BME280;50639;53.270;7.956;2024-03-07T11:28:37;102673.75;;;8.69;78.75
64298;BME280;50639;53.270;7.956;2024-03-07T11:31:15;102668.50;;;8.72;78.26
64298;BME280;50639;53.270;7.956;2024-03-07T11:34:13;102673.63;;;8.74;77.90
64298;BME280;50639;53.270;7.956;2024-03-07T11:36:45;102660.00;;;8.67;77.99
64298;BME280;50639;53.270;7.956;2024-03-07T11:39:40;102668.03;;;8.55;78.62
64298;BME280;50639;53.270;7.956;2024-03-07T11:42:08;102664.09;;;8.39;77.58
64298;BME280;50639;53.270;7.956;2024-03-07T11:44:33;102664.28;;;8.28;78.93
64298;BME280;50639;53.270;7.956;2024-03-07T11:47:05;102663.44;;;8.27;78.89
64298;BME280;50639;53.270;7.956;2024-03-07T11:49:37;102655.19;;;8.52;78.86
64298;BME280;50639;53.270;7.956;2024-03-07T11:52:03;102657.19;;;8.78;78.64
64298;BME280;50639;53.270;7.956;2024-03-07T11:54:41;102650.19;;;8.81;78.54
64298;BME280;50639;53.270;7.956;2024-03-07T11:57:18;102647.59;;;8.83;78.31
64298;BME280;50639;53.270;7.956;2024-03-07T11:59:58;102646.13;;;8.71;78.16
64298;BME280;50639;53.270;7.956;2024-03-07T12:02:27;102638.31;;;8.74;78.54
64298;BME280;50639;53.270;7.956;2024-03-07T12:04:53;102646.56;;;8.88;78.29
64298;BME280;50639;53.270;7.956;2024-03-07T12:07:19;102647.38;;;8.92;78.24
64298;BME280;50639;53.270;7.956;2024-03-07T12:09:48;102638.25;;;9.13;77.79
64298;BME280;50639;53.270;7.956;2024-03-07T12:12:21;102641.66;;;9.15;77.36
64298;BME280;50639;53.270;7.956;2024-03-07T12:14:48;102630.72;;;9.03;77.00
64298;BME280;50639;53.270;7.956;2024-03-07T12:17:17;102636.97;;;8.95;77.06
64298;BME280;50639;53.270;7.956;2024-03-07T12:19:43;102629.25;;;8.93;77.14
64298;BME280;50639;53.270;7.956;2024-03-07T12:22:09;102634.13;;;9.05;77.07
64298;BME280;50639;53.270;7.956;2024-03-07T12:24:40;102625.88;;;9.24;76.55
64298;BME280;50639;53.270;7.956;2024-03-07T12:27:11;102625.34;;;9.11;74.88
64298;BME280;50639;53.270;7.956;2024-03-07T12:29:37;102623.59;;;9.13;75.35
64298;BME280;50639;53.270;7.956;2024-03-07T12:32:08;102619.06;;;9.21;76.30
64298;BME280;50639;53.270;7.956;2024-03-07T12:34:36;102616.56;;;9.18;75.72
64298;BME280;50639;53.270;7.956;2024-03-07T12:37:09;102615.13;;;9.06;75.38
64298;BME280;50639;53.270;7.956;2024-03-07T12:39:35;102609.47;;;8.92;76.15
64298;BME280;50639;53.270;7.956;2024-03-07T12:42:03;102615.28;;;9.00;76.66
64298;BME280;50639;53.270;7.956;2024-03-07T12:44:39;102612.59;;;9.05;76.24
64298;BME280;50639;53.270;7.956;2024-03-07T12:47:09;102614.13;;;9.12;75.84
64298;BME280;50639;53.270;7.956;2024-03-07T12:49:36;102602.09;;;9.11;75.91
64298;BME280;50639;53.270;7.956;2024-03-07T12:52:01;102601.69;;;8.92;75.42
64298;BME280;50639;53.270;7.956;2024-03-07T12:54:26;102602.53;;;8.94;75.52
64298;BME280;50639;53.270;7.956;2024-03-07T12:56:52;102600.66;;;8.99;75.17
64298;BME280;50639;53.270;7.956;2024-03-07T12:59:18;102597.41;;;8.91;75.64
64298;BME280;50639;53.270;7.956;2024-03-07T13:01:45;102601.09;;;8.81;76.01
64298;BME280;50639;53.270;7.956;2024-03-07T13:04:16;102585.63;;;8.80;76.61
64298;BME280;50639;53.270;7.956;2024-03-07T13:06:42;102597.22;;;8.99;75.99
64298;BME280;50639;53.270;7.956;2024-03-07T13:09:12;102587.97;;;8.90;75.61
64298;BME280;50639;53.270;7.956;2024-03-07T13:11:41;102594.88;;;8.90;74.84